sensor_id;sensor_type;location;lat;lon;timestamp;temperature;humidity
72650;SHT31;61467;50.674;4.618;2022-12-24T00:00:57;10.88;81.12
72650;SHT31;61467;50.674;4.618;2022-12-24T00:03:25;10.96;81.01
72650;SHT31;61467;50.674;4.618;2022-12-24T00:05:52;10.96;80.88
72650;SHT31;61467;50.674;4.618;2022-12-24T00:08:19;11.15;80.89
72650;SHT31;61467;50.674;4.618;2022-12-24T00:10:49;11.04;81.81
72650;SHT31;61467;50.674;4.618;2022-12-24T00:13:15;10.95;82.44
72650;SHT31;61467;50.674;4.618;2022-12-24T00:15:42;10.74;83.39
72650;SHT31;61467;50.674;4.618;2022-12-24T00:18:09;11.01;83.01
72650;SHT31;61467;50.674;4.618;2022-12-24T00:20:37;10.76;83.63
72650;SHT31;61467;50.674;4.618;2022-12-24T00:23:04;10.69;83.84
72650;SHT31;61467;50.674;4.618;2022-12-24T00:25:31;10.98;83.12
72650;SHT31;61467;50.674;4.618;2022-12-24T00:27:58;10.75;83.26
72650;SHT31;61467;50.674;4.618;2022-12-24T00:30:24;10.78;83.13
72650;SHT31;61467;50.674;4.618;2022-12-24T00:32:51;10.94;83.13
72650;SHT31;61467;50.674;4.618;2022-12-24T00:35:18;10.81;83.48
72650;SHT31;61467;50.674;4.618;2022-12-24T00:37:47;10.79;83.95
72650;SHT31;61467;50.674;4.618;2022-12-24T00:40:14;11.05;82.85
72650;SHT31;61467;50.674;4.618;2022-12-24T00:42:41;10.85;82.93
72650;SHT31;61467;50.674;4.618;2022-12-24T00:45:10;11.05;82.28
72650;SHT31;61467;50.674;4.618;2022-12-24T00:47:37;10.82;83.15
72650;SHT31;61467;50.674;4.618;2022-12-24T00:50:05;10.61;84.12
72650;SHT31;61467;50.674;4.618;2022-12-24T00:52:32;10.72;84.47
72650;SHT31;61467;50.674;4.618;2022-12-24T00:55:00;10.82;83.84
72650;SHT31;61467;50.674;4.618;2022-12-24T00:57:27;10.86;84.45
72650;SHT31;61467;50.674;4.618;2022-12-24T00:59:54;10.86;84.44
72650;SHT31;61467;50.674;4.618;2022-12-24T01:02:21;10.81;84.58
72650;SHT31;61467;50.674;4.618;2022-12-24T01:04:48;10.92;84.39
72650;SHT31;61467;50.674;4.618;2022-12-24T01:07:32;10.65;84.89
72650;SHT31;61467;50.674;4.618;2022-12-24T01:10:00;10.74;84.79
72650;SHT31;61467;50.674;4.618;2022-12-24T01:12:27;10.64;85.47
72650;SHT31;61467;50.674;4.618;2022-12-24T01:14:54;10.68;85.00
72650;SHT31;61467;50.674;4.618;2022-12-24T01:17:21;10.68;85.25
72650;SHT31;61467;50.674;4.618;2022-12-24T01:19:47;10.65;85.34
72650;SHT31;61467;50.674;4.618;2022-12-24T01:22:14;10.72;85.15
72650;SHT31;61467;50.674;4.618;2022-12-24T01:24:41;10.85;85.07
72650;SHT31;61467;50.674;4.618;2022-12-24T01:27:10;10.82;84.69
72650;SHT31;61467;50.674;4.618;2022-12-24T01:29:37;10.82;84.44
72650;SHT31;61467;50.674;4.618;2022-12-24T01:32:04;10.75;84.31
72650;SHT31;61467;50.674;4.618;2022-12-24T01:34:30;10.57;84.97
72650;SHT31;61467;50.674;4.618;2022-12-24T01:36:57;10.60;84.56
72650;SHT31;61467;50.674;4.618;2022-12-24T01:39:24;10.82;83.78
72650;SHT31;61467;50.674;4.618;2022-12-24T01:41:51;10.63;84.24
72650;SHT31;61467;50.674;4.618;2022-12-24T01:44:39;10.68;84.16
72650;SHT31;61467;50.674;4.618;2022-12-24T01:47:08;10.53;84.29
72650;SHT31;61467;50.674;4.618;2022-12-24T01:49:38;10.69;84.40
72650;SHT31;61467;50.674;4.618;2022-12-24T01:52:08;10.61;84.30
72650;SHT31;61467;50.674;4.618;2022-12-24T01:54:39;10.68;84.15
72650;SHT31;61467;50.674;4.618;2022-12-24T01:57:12;10.64;83.90
72650;SHT31;61467;50.674;4.618;2022-12-24T01:59:43;10.54;84.36
72650;SHT31;61467;50.674;4.618;2022-12-24T02:02:12;10.47;84.63
72650;SHT31;61467;50.674;4.618;2022-12-24T02:04:43;10.51;84.76
72650;SHT31;61467;50.674;4.618;2022-12-24T02:07:12;10.63;84.12
72650;SHT31;61467;50.674;4.618;2022-12-24T02:09:40;10.57;83.81
72650;SHT31;61467;50.674;4.618;2022-12-24T02:12:08;10.72;83.55
72650;SHT31;61467;50.674;4.618;2022-12-24T02:14:36;10.67;83.57
72650;SHT31;61467;50.674;4.618;2022-12-24T02:17:12;10.72;83.59
72650;SHT31;61467;50.674;4.618;2022-12-24T02:20:18;10.96;82.92
72650;SHT31;61467;50.674;4.618;2022-12-24T02:23:06;10.69;83.49
72650;SHT31;61467;50.674;4.618;2022-12-24T02:25:50;10.91;82.90
72650;SHT31;61467;50.674;4.618;2022-12-24T02:28:37;10.69;83.32
72650;SHT31;61467;50.674;4.618;2022-12-24T02:31:13;10.82;83.21
72650;SHT31;61467;50.674;4.618;2022-12-24T02:33:46;10.88;83.29
72650;SHT31;61467;50.674;4.618;2022-12-24T02:36:19;10.76;83.11
72650;SHT31;61467;50.674;4.618;2022-12-24T02:38:51;10.84;83.68
72650;SHT31;61467;50.674;4.618;2022-12-24T02:41:24;10.72;84.00
72650;SHT31;61467;50.674;4.618;2022-12-24T02:43:53;10.76;84.03
72650;SHT31;61467;50.674;4.618;2022-12-24T02:46:26;10.69;84.80
72650;SHT31;61467;50.674;4.618;2022-12-24T02:48:53;10.72;84.97
72650;SHT31;61467;50.674;4.618;2022-12-24T02:51:22;10.72;85.21
72650;SHT31;61467;50.674;4.618;2022-12-24T02:53:49;10.75;85.07
72650;SHT31;61467;50.674;4.618;2022-12-24T02:56:49;10.72;85.46
72650;SHT31;61467;50.674;4.618;2022-12-24T02:59:32;10.68;85.61
72650;SHT31;61467;50.674;4.618;2022-12-24T03:02:08;10.54;86.08
72650;SHT31;61467;50.674;4.618;2022-12-24T03:04:47;10.45;86.05
72650;SHT31;61467;50.674;4.618;2022-12-24T03:07:20;10.58;86.13
72650;SHT31;61467;50.674;4.618;2022-12-24T03:10:04;10.76;85.19
72650;SHT31;61467;50.674;4.618;2022-12-24T03:12:35;10.82;84.91
72650;SHT31;61467;50.674;4.618;2022-12-24T03:15:06;10.85;84.64
72650;SHT31;61467;50.674;4.618;2022-12-24T03:17:37;10.81;84.60
72650;SHT31;61467;50.674;4.618;2022-12-24T03:20:08;10.78;84.82
72650;SHT31;61467;50.674;4.618;2022-12-24T03:22:35;10.88;84.59
72650;SHT31;61467;50.674;4.618;2022-12-24T03:25:03;10.76;84.43
72650;SHT31;61467;50.674;4.618;2022-12-24T03:27:30;10.71;84.67
72650;SHT31;61467;50.674;4.618;2022-12-24T03:29:58;10.68;84.98
72650;SHT31;61467;50.674;4.618;2022-12-24T03:32:28;10.72;84.39
72650;SHT31;61467;50.674;4.618;2022-12-24T03:34:56;10.72;84.75
72650;SHT31;61467;50.674;4.618;2022-12-24T03:37:23;10.64;84.56
72650;SHT31;61467;50.674;4.618;2022-12-24T03:39:51;10.65;84.14
72650;SHT31;61467;50.674;4.618;2022-12-24T03:42:17;10.82;83.81
72650;SHT31;61467;50.674;4.618;2022-12-24T03:44:44;10.86;83.29
72650;SHT31;61467;50.674;4.618;2022-12-24T03:47:11;10.79;83.86
72650;SHT31;61467;50.674;4.618;2022-12-24T03:49:38;10.65;83.97
72650;SHT31;61467;50.674;4.618;2022-12-24T03:52:06;10.72;83.71
72650;SHT31;61467;50.674;4.618;2022-12-24T03:54:33;10.67;84.04
72650;SHT31;61467;50.674;4.618;2022-12-24T03:57:00;10.65;84.34
72650;SHT31;61467;50.674;4.618;2022-12-24T03:59:26;10.76;84.48
72650;SHT31;61467;50.674;4.618;2022-12-24T04:01:53;10.68;84.36
72650;SHT31;61467;50.674;4.618;2022-12-24T04:04:20;10.57;84.90
72650;SHT31;61467;50.674;4.618;2022-12-24T04:06:47;10.63;84.82
72650;SHT31;61467;50.674;4.618;2022-12-24T04:09:15;10.72;83.99
72650;SHT31;61467;50.674;4.618;2022-12-24T04:11:42;10.79;83.68
72650;SHT31;61467;50.674;4.618;2022-12-24T04:14:09;10.85;83.84
72650;SHT31;61467;50.674;4.618;2022-12-24T04:16:35;10.85;83.38
72650;SHT31;61467;50.674;4.618;2022-12-24T04:19:03;10.91;83.34
72650;SHT31;61467;50.674;4.618;2022-12-24T04:21:30;10.86;83.04
72650;SHT31;61467;50.674;4.618;2022-12-24T04:23:57;10.88;82.74
72650;SHT31;61467;50.674;4.618;2022-12-24T04:26:25;10.84;83.38
72650;SHT31;61467;50.674;4.618;2022-12-24T04:28:52;10.82;82.86
72650;SHT31;61467;50.674;4.618;2022-12-24T04:31:19;10.75;83.26
72650;SHT31;61467;50.674;4.618;2022-12-24T04:33:46;10.84;82.94
72650;SHT31;61467;50.674;4.618;2022-12-24T04:36:15;10.85;82.80
72650;SHT31;61467;50.674;4.618;2022-12-24T04:38:42;10.71;82.96
72650;SHT31;61467;50.674;4.618;2022-12-24T04:41:11;10.84;82.34
72650;SHT31;61467;50.674;4.618;2022-12-24T04:43:40;10.84;82.50
72650;SHT31;61467;50.674;4.618;2022-12-24T04:46:08;10.91;82.05
72650;SHT31;61467;50.674;4.618;2022-12-24T04:48:36;10.88;82.42
72650;SHT31;61467;50.674;4.618;2022-12-24T04:51:04;11.04;81.79
72650;SHT31;61467;50.674;4.618;2022-12-24T04:53:33;10.79;82.43
72650;SHT31;61467;50.674;4.618;2022-12-24T04:56:00;10.61;83.25
72650;SHT31;61467;50.674;4.618;2022-12-24T04:58:27;10.78;82.45
72650;SHT31;61467;50.674;4.618;2022-12-24T05:00:56;10.64;82.75
72650;SHT31;61467;50.674;4.618;2022-12-24T05:03:23;10.60;83.15
72650;SHT31;61467;50.674;4.618;2022-12-24T05:05:49;10.67;83.22
72650;SHT31;61467;50.674;4.618;2022-12-24T05:08:16;10.61;82.98
72650;SHT31;61467;50.674;4.618;2022-12-24T05:10:43;10.71;82.93
72650;SHT31;61467;50.674;4.618;2022-12-24T05:13:10;10.94;82.05
72650;SHT31;61467;50.674;4.618;2022-12-24T05:15:37;10.64;82.81
72650;SHT31;61467;50.674;4.618;2022-12-24T05:18:05;10.85;82.67
72650;SHT31;61467;50.674;4.618;2022-12-24T05:20:32;10.95;82.02
72650;SHT31;61467;50.674;4.618;2022-12-24T05:22:59;10.79;82.15
72650;SHT31;61467;50.674;4.618;2022-12-24T05:25:43;10.74;82.41
72650;SHT31;61467;50.674;4.618;2022-12-24T05:28:27;10.68;82.63
72650;SHT31;61467;50.674;4.618;2022-12-24T05:30:54;10.74;82.31
72650;SHT31;61467;50.674;4.618;2022-12-24T05:33:22;10.64;82.93
72650;SHT31;61467;50.674;4.618;2022-12-24T05:35:50;10.78;82.42
72650;SHT31;61467;50.674;4.618;2022-12-24T05:38:17;10.65;82.95
72650;SHT31;61467;50.674;4.618;2022-12-24T05:40:44;10.69;82.69
72650;SHT31;61467;50.674;4.618;2022-12-24T05:43:11;10.94;81.89
72650;SHT31;61467;50.674;4.618;2022-12-24T05:45:38;10.84;82.04
72650;SHT31;61467;50.674;4.618;2022-12-24T05:48:05;10.81;81.88
72650;SHT31;61467;50.674;4.618;2022-12-24T05:50:34;10.69;82.16
72650;SHT31;61467;50.674;4.618;2022-12-24T05:53:00;10.75;82.38
72650;SHT31;61467;50.674;4.618;2022-12-24T05:55:27;10.81;82.32
72650;SHT31;61467;50.674;4.618;2022-12-24T05:57:54;10.78;82.09
72650;SHT31;61467;50.674;4.618;2022-12-24T06:00:21;10.91;81.74
72650;SHT31;61467;50.674;4.618;2022-12-24T06:02:48;10.86;81.61
72650;SHT31;61467;50.674;4.618;2022-12-24T06:05:15;11.01;81.19
72650;SHT31;61467;50.674;4.618;2022-12-24T06:07:43;10.95;81.37
72650;SHT31;61467;50.674;4.618;2022-12-24T06:10:10;11.04;81.30
72650;SHT31;61467;50.674;4.618;2022-12-24T06:12:36;10.81;81.67
72650;SHT31;61467;50.674;4.618;2022-12-24T06:15:04;10.98;81.22
72650;SHT31;61467;50.674;4.618;2022-12-24T06:17:31;10.71;81.97
72650;SHT31;61467;50.674;4.618;2022-12-24T06:19:58;10.85;81.49
72650;SHT31;61467;50.674;4.618;2022-12-24T06:22:25;10.72;82.22
72650;SHT31;61467;50.674;4.618;2022-12-24T06:24:53;10.84;81.60
72650;SHT31;61467;50.674;4.618;2022-12-24T06:27:20;10.64;82.18
72650;SHT31;61467;50.674;4.618;2022-12-24T06:29:46;10.72;82.08
72650;SHT31;61467;50.674;4.618;2022-12-24T06:32:13;10.67;82.11
72650;SHT31;61467;50.674;4.618;2022-12-24T06:34:40;10.67;81.98
72650;SHT31;61467;50.674;4.618;2022-12-24T06:37:07;10.55;82.53
72650;SHT31;61467;50.674;4.618;2022-12-24T06:39:43;10.51;82.53
72650;SHT31;61467;50.674;4.618;2022-12-24T06:42:11;10.81;82.09
72650;SHT31;61467;50.674;4.618;2022-12-24T06:44:38;10.60;82.23
72650;SHT31;61467;50.674;4.618;2022-12-24T06:47:05;10.78;82.01
72650;SHT31;61467;50.674;4.618;2022-12-24T06:49:31;10.88;81.17
72650;SHT31;61467;50.674;4.618;2022-12-24T06:51:58;10.78;81.56
72650;SHT31;61467;50.674;4.618;2022-12-24T06:54:25;10.69;81.56
72650;SHT31;61467;50.674;4.618;2022-12-24T06:56:52;10.54;82.60
72650;SHT31;61467;50.674;4.618;2022-12-24T06:59:20;10.41;82.96
72650;SHT31;61467;50.674;4.618;2022-12-24T07:01:47;10.43;82.66
72650;SHT31;61467;50.674;4.618;2022-12-24T07:04:14;10.48;82.64
72650;SHT31;61467;50.674;4.618;2022-12-24T07:06:41;10.53;82.60
72650;SHT31;61467;50.674;4.618;2022-12-24T07:09:10;10.29;83.38
72650;SHT31;61467;50.674;4.618;2022-12-24T07:11:38;10.36;83.32
72650;SHT31;61467;50.674;4.618;2022-12-24T07:14:05;10.48;82.56
72650;SHT31;61467;50.674;4.618;2022-12-24T07:16:33;10.43;82.94
72650;SHT31;61467;50.674;4.618;2022-12-24T07:19:00;10.38;83.18
72650;SHT31;61467;50.674;4.618;2022-12-24T07:21:27;10.21;83.48
72650;SHT31;61467;50.674;4.618;2022-12-24T07:23:54;10.23;83.40
72650;SHT31;61467;50.674;4.618;2022-12-24T07:26:20;10.06;84.13
72650;SHT31;61467;50.674;4.618;2022-12-24T07:28:47;10.33;83.59
72650;SHT31;61467;50.674;4.618;2022-12-24T07:31:14;10.21;83.18
72650;SHT31;61467;50.674;4.618;2022-12-24T07:33:42;10.23;83.42
72650;SHT31;61467;50.674;4.618;2022-12-24T07:36:14;10.27;83.39
72650;SHT31;61467;50.674;4.618;2022-12-24T07:38:43;10.29;83.28
72650;SHT31;61467;50.674;4.618;2022-12-24T07:41:10;10.14;83.44
72650;SHT31;61467;50.674;4.618;2022-12-24T07:43:37;10.32;83.36
72650;SHT31;61467;50.674;4.618;2022-12-24T07:46:04;10.48;82.73
72650;SHT31;61467;50.674;4.618;2022-12-24T07:48:31;10.57;82.61
72650;SHT31;61467;50.674;4.618;2022-12-24T07:51:00;10.51;82.17
72650;SHT31;61467;50.674;4.618;2022-12-24T07:53:28;10.61;82.23
72650;SHT31;61467;50.674;4.618;2022-12-24T07:55:55;10.57;82.17
72650;SHT31;61467;50.674;4.618;2022-12-24T07:58:22;10.41;82.15
72650;SHT31;61467;50.674;4.618;2022-12-24T08:00:54;10.45;82.53
72650;SHT31;61467;50.674;4.618;2022-12-24T08:03:21;10.50;81.97
72650;SHT31;61467;50.674;4.618;2022-12-24T08:05:48;10.34;82.66
72650;SHT31;61467;50.674;4.618;2022-12-24T08:08:18;10.41;82.89
72650;SHT31;61467;50.674;4.618;2022-12-24T08:10:45;10.36;82.85
72650;SHT31;61467;50.674;4.618;2022-12-24T08:13:12;10.65;82.47
72650;SHT31;61467;50.674;4.618;2022-12-24T08:15:39;10.43;82.50
72650;SHT31;61467;50.674;4.618;2022-12-24T08:18:06;10.57;82.43
72650;SHT31;61467;50.674;4.618;2022-12-24T08:20:36;10.43;82.84
72650;SHT31;61467;50.674;4.618;2022-12-24T08:23:03;10.57;82.33
72650;SHT31;61467;50.674;4.618;2022-12-24T08:25:32;10.61;82.29
72650;SHT31;61467;50.674;4.618;2022-12-24T08:27:58;10.69;81.83
72650;SHT31;61467;50.674;4.618;2022-12-24T08:30:25;10.75;81.70
72650;SHT31;61467;50.674;4.618;2022-12-24T08:32:52;10.51;82.44
72650;SHT31;61467;50.674;4.618;2022-12-24T08:35:20;10.76;81.94
72650;SHT31;61467;50.674;4.618;2022-12-24T08:37:47;10.91;81.44
72650;SHT31;61467;50.674;4.618;2022-12-24T08:40:14;10.86;81.65
72650;SHT31;61467;50.674;4.618;2022-12-24T08:42:42;10.76;81.69
72650;SHT31;61467;50.674;4.618;2022-12-24T08:45:10;10.76;82.04
72650;SHT31;61467;50.674;4.618;2022-12-24T08:47:37;10.84;81.96
72650;SHT31;61467;50.674;4.618;2022-12-24T08:50:04;10.71;82.66
72650;SHT31;61467;50.674;4.618;2022-12-24T08:52:32;10.78;82.17
72650;SHT31;61467;50.674;4.618;2022-12-24T08:54:58;10.82;82.25
72650;SHT31;61467;50.674;4.618;2022-12-24T08:57:25;10.99;81.85
72650;SHT31;61467;50.674;4.618;2022-12-24T08:59:54;11.01;81.37
72650;SHT31;61467;50.674;4.618;2022-12-24T09:02:20;10.89;81.73
72650;SHT31;61467;50.674;4.618;2022-12-24T09:04:51;10.94;81.91
72650;SHT31;61467;50.674;4.618;2022-12-24T09:07:18;10.91;82.04
72650;SHT31;61467;50.674;4.618;2022-12-24T09:09:44;11.02;81.58
72650;SHT31;61467;50.674;4.618;2022-12-24T09:12:11;10.98;81.72
72650;SHT31;61467;50.674;4.618;2022-12-24T09:14:38;11.05;81.73
72650;SHT31;61467;50.674;4.618;2022-12-24T09:17:06;11.11;81.58
72650;SHT31;61467;50.674;4.618;2022-12-24T09:19:33;11.12;81.95
72650;SHT31;61467;50.674;4.618;2022-12-24T09:22:00;10.88;82.42
72650;SHT31;61467;50.674;4.618;2022-12-24T09:24:27;11.22;81.62
72650;SHT31;61467;50.674;4.618;2022-12-24T09:26:54;11.12;81.70
72650;SHT31;61467;50.674;4.618;2022-12-24T09:29:21;11.15;81.78
72650;SHT31;61467;50.674;4.618;2022-12-24T09:31:47;11.25;81.46
72650;SHT31;61467;50.674;4.618;2022-12-24T09:34:16;11.30;81.30
72650;SHT31;61467;50.674;4.618;2022-12-24T09:36:43;11.12;81.70
72650;SHT31;61467;50.674;4.618;2022-12-24T09:39:10;11.19;81.55
72650;SHT31;61467;50.674;4.618;2022-12-24T09:41:46;11.20;81.37
72650;SHT31;61467;50.674;4.618;2022-12-24T09:44:27;11.18;81.34
72650;SHT31;61467;50.674;4.618;2022-12-24T09:46:56;11.22;81.52
72650;SHT31;61467;50.674;4.618;2022-12-24T09:49:35;11.18;82.05
72650;SHT31;61467;50.674;4.618;2022-12-24T09:52:06;11.16;81.51
72650;SHT31;61467;50.674;4.618;2022-12-24T09:54:35;11.73;83.23
72650;SHT31;61467;50.674;4.618;2022-12-24T09:57:07;11.87;79.12
72650;SHT31;61467;50.674;4.618;2022-12-24T09:59:40;11.98;78.85
72650;SHT31;61467;50.674;4.618;2022-12-24T10:02:09;12.31;78.28
72650;SHT31;61467;50.674;4.618;2022-12-24T10:04:38;12.18;78.20
72650;SHT31;61467;50.674;4.618;2022-12-24T10:07:15;11.87;78.98
72650;SHT31;61467;50.674;4.618;2022-12-24T10:09:48;11.90;79.38
72650;SHT31;61467;50.674;4.618;2022-12-24T10:12:24;11.83;79.71
72650;SHT31;61467;50.674;4.618;2022-12-24T10:15:01;11.99;79.11
72650;SHT31;61467;50.674;4.618;2022-12-24T10:17:40;11.94;79.05
72650;SHT31;61467;50.674;4.618;2022-12-24T10:20:35;11.98;78.85
72650;SHT31;61467;50.674;4.618;2022-12-24T10:23:08;12.14;78.87
72650;SHT31;61467;50.674;4.618;2022-12-24T10:25:42;12.31;77.93
72650;SHT31;61467;50.674;4.618;2022-12-24T10:28:14;12.45;77.75
72650;SHT31;61467;50.674;4.618;2022-12-24T10:30:43;12.34;77.66
72650;SHT31;61467;50.674;4.618;2022-12-24T10:33:18;12.34;77.89
72650;SHT31;61467;50.674;4.618;2022-12-24T10:35:49;12.28;78.22
72650;SHT31;61467;50.674;4.618;2022-12-24T10:38:21;12.28;77.68
72650;SHT31;61467;50.674;4.618;2022-12-24T10:40:49;12.46;77.63
72650;SHT31;61467;50.674;4.618;2022-12-24T10:43:18;12.50;77.86
72650;SHT31;61467;50.674;4.618;2022-12-24T10:45:47;12.64;77.04
72650;SHT31;61467;50.674;4.618;2022-12-24T10:48:20;12.70;77.08
72650;SHT31;61467;50.674;4.618;2022-12-24T10:50:57;12.55;77.52
72650;SHT31;61467;50.674;4.618;2022-12-24T10:53:31;12.57;77.25
72650;SHT31;61467;50.674;4.618;2022-12-24T10:56:04;12.66;77.13
72650;SHT31;61467;50.674;4.618;2022-12-24T10:58:33;12.39;77.87
72650;SHT31;61467;50.674;4.618;2022-12-24T11:01:01;12.24;78.43
72650;SHT31;61467;50.674;4.618;2022-12-24T11:03:30;12.18;78.63
72650;SHT31;61467;50.674;4.618;2022-12-24T11:06:05;12.34;78.01
72650;SHT31;61467;50.674;4.618;2022-12-24T11:08:32;12.17;78.83
72650;SHT31;61467;50.674;4.618;2022-12-24T11:11:01;12.14;78.75
72650;SHT31;61467;50.674;4.618;2022-12-24T11:13:30;12.31;78.50
72650;SHT31;61467;50.674;4.618;2022-12-24T11:16:00;12.41;78.39
72650;SHT31;61467;50.674;4.618;2022-12-24T11:18:28;12.43;78.04
72650;SHT31;61467;50.674;4.618;2022-12-24T11:20:57;12.06;78.90
72650;SHT31;61467;50.674;4.618;2022-12-24T11:23:27;12.17;78.93
72650;SHT31;61467;50.674;4.618;2022-12-24T11:25:55;12.12;78.71
72650;SHT31;61467;50.674;4.618;2022-12-24T11:28:25;12.10;79.14
72650;SHT31;61467;50.674;4.618;2022-12-24T11:30:59;12.17;78.76
72650;SHT31;61467;50.674;4.618;2022-12-24T11:33:27;12.08;79.12
72650;SHT31;61467;50.674;4.618;2022-12-24T11:36:02;12.06;78.92
72650;SHT31;61467;50.674;4.618;2022-12-24T11:38:33;12.25;78.59
72650;SHT31;61467;50.674;4.618;2022-12-24T11:41:06;12.15;78.74
72650;SHT31;61467;50.674;4.618;2022-12-24T11:43:36;12.15;78.55
72650;SHT31;61467;50.674;4.618;2022-12-24T11:46:17;12.14;78.53
72650;SHT31;61467;50.674;4.618;2022-12-24T11:48:45;12.14;78.64
72650;SHT31;61467;50.674;4.618;2022-12-24T11:51:23;12.12;78.47
72650;SHT31;61467;50.674;4.618;2022-12-24T11:53:59;12.11;79.08
72650;SHT31;61467;50.674;4.618;2022-12-24T11:56:32;12.31;78.71
72650;SHT31;61467;50.674;4.618;2022-12-24T11:59:10;12.18;78.89
72650;SHT31;61467;50.674;4.618;2022-12-24T12:01:45;12.12;78.78
72650;SHT31;61467;50.674;4.618;2022-12-24T12:04:15;12.10;78.82
72650;SHT31;61467;50.674;4.618;2022-12-24T12:06:45;12.18;78.77
72650;SHT31;61467;50.674;4.618;2022-12-24T12:09:19;12.31;78.24
72650;SHT31;61467;50.674;4.618;2022-12-24T12:11:49;12.17;78.59
72650;SHT31;61467;50.674;4.618;2022-12-24T12:14:20;12.11;78.82
72650;SHT31;61467;50.674;4.618;2022-12-24T12:16:57;12.12;78.88
72650;SHT31;61467;50.674;4.618;2022-12-24T12:19:37;12.17;78.79
72650;SHT31;61467;50.674;4.618;2022-12-24T12:22:13;12.10;78.42
72650;SHT31;61467;50.674;4.618;2022-12-24T12:24:47;12.43;77.66
72650;SHT31;61467;50.674;4.618;2022-12-24T12:27:19;12.39;77.50
72650;SHT31;61467;50.674;4.618;2022-12-24T12:29:56;12.02;79.09
72650;SHT31;61467;50.674;4.618;2022-12-24T12:32:34;12.34;77.95
72650;SHT31;61467;50.674;4.618;2022-12-24T12:35:08;12.14;78.23
72650;SHT31;61467;50.674;4.618;2022-12-24T12:37:42;12.18;78.49
72650;SHT31;61467;50.674;4.618;2022-12-24T12:40:14;12.25;77.94
72650;SHT31;61467;50.674;4.618;2022-12-24T12:42:45;12.24;77.96
72650;SHT31;61467;50.674;4.618;2022-12-24T12:45:35;12.29;78.42
72650;SHT31;61467;50.674;4.618;2022-12-24T12:48:25;12.26;78.10
72650;SHT31;61467;50.674;4.618;2022-12-24T12:50:59;12.38;77.94
72650;SHT31;61467;50.674;4.618;2022-12-24T12:56:40;12.50;77.43
72650;SHT31;61467;50.674;4.618;2022-12-24T12:59:14;12.55;77.58
72650;SHT31;61467;50.674;4.618;2022-12-24T13:01:49;12.41;77.48
72650;SHT31;61467;50.674;4.618;2022-12-24T13:07:57;12.70;76.48
72650;SHT31;61467;50.674;4.618;2022-12-24T13:10:50;12.36;76.83
72650;SHT31;61467;50.674;4.618;2022-12-24T13:13:38;12.29;77.08
72650;SHT31;61467;50.674;4.618;2022-12-24T13:19:14;12.48;77.36
72650;SHT31;61467;50.674;4.618;2022-12-24T13:21:43;12.59;76.98
72650;SHT31;61467;50.674;4.618;2022-12-24T13:24:16;12.64;75.92
72650;SHT31;61467;50.674;4.618;2022-12-24T13:26:59;12.66;75.84
72650;SHT31;61467;50.674;4.618;2022-12-24T13:29:42;12.56;76.13
72650;SHT31;61467;50.674;4.618;2022-12-24T13:32:45;12.64;75.86
72650;SHT31;61467;50.674;4.618;2022-12-24T13:35:27;12.64;76.42
72650;SHT31;61467;50.674;4.618;2022-12-24T13:44:20;12.56;76.46
72650;SHT31;61467;50.674;4.618;2022-12-24T13:47:03;12.63;76.03
72650;SHT31;61467;50.674;4.618;2022-12-24T13:49:33;12.55;75.94
72650;SHT31;61467;50.674;4.618;2022-12-24T13:52:16;12.59;76.16
72650;SHT31;61467;50.674;4.618;2022-12-24T13:54:48;12.63;76.14
72650;SHT31;61467;50.674;4.618;2022-12-24T13:57:27;12.57;76.15
72650;SHT31;61467;50.674;4.618;2022-12-24T13:59:58;12.50;76.14
72650;SHT31;61467;50.674;4.618;2022-12-24T14:02:31;12.72;75.77
72650;SHT31;61467;50.674;4.618;2022-12-24T14:05:03;12.66;75.76
72650;SHT31;61467;50.674;4.618;2022-12-24T14:07:33;12.60;75.81
72650;SHT31;61467;50.674;4.618;2022-12-24T14:10:01;12.57;76.10
72650;SHT31;61467;50.674;4.618;2022-12-24T14:12:45;12.48;75.90
72650;SHT31;61467;50.674;4.618;2022-12-24T14:18:26;12.41;76.63
72650;SHT31;61467;50.674;4.618;2022-12-24T14:20:57;12.53;76.21
72650;SHT31;61467;50.674;4.618;2022-12-24T14:23:32;12.57;76.14
72650;SHT31;61467;50.674;4.618;2022-12-24T14:26:02;12.63;76.11
72650;SHT31;61467;50.674;4.618;2022-12-24T14:28:33;12.69;75.99
72650;SHT31;61467;50.674;4.618;2022-12-24T14:31:03;12.60;76.47
72650;SHT31;61467;50.674;4.618;2022-12-24T14:33:33;12.60;76.46
72650;SHT31;61467;50.674;4.618;2022-12-24T14:36:00;12.69;76.13
72650;SHT31;61467;50.674;4.618;2022-12-24T14:38:28;12.67;76.22
72650;SHT31;61467;50.674;4.618;2022-12-24T14:41:01;12.69;76.28
72650;SHT31;61467;50.674;4.618;2022-12-24T14:43:40;12.59;76.78
72650;SHT31;61467;50.674;4.618;2022-12-24T14:46:16;12.45;77.85
72650;SHT31;61467;50.674;4.618;2022-12-24T14:48:51;12.59;77.64
72650;SHT31;61467;50.674;4.618;2022-12-24T14:51:22;12.63;77.67
72650;SHT31;61467;50.674;4.618;2022-12-24T14:54:13;12.64;77.74
72650;SHT31;61467;50.674;4.618;2022-12-24T14:56:42;12.64;77.90
72650;SHT31;61467;50.674;4.618;2022-12-24T14:59:15;12.67;77.83
72650;SHT31;61467;50.674;4.618;2022-12-24T15:01:43;12.67;77.79
72650;SHT31;61467;50.674;4.618;2022-12-24T15:04:17;12.62;77.85
72650;SHT31;61467;50.674;4.618;2022-12-24T15:06:46;12.59;78.08
72650;SHT31;61467;50.674;4.618;2022-12-24T15:09:18;12.62;78.06
72650;SHT31;61467;50.674;4.618;2022-12-24T15:11:47;12.50;78.26
72650;SHT31;61467;50.674;4.618;2022-12-24T15:14:15;12.46;78.34
72650;SHT31;61467;50.674;4.618;2022-12-24T15:16:53;12.50;78.24
72650;SHT31;61467;50.674;4.618;2022-12-24T15:19:24;12.56;78.19
72650;SHT31;61467;50.674;4.618;2022-12-24T15:21:53;12.59;78.11
72650;SHT31;61467;50.674;4.618;2022-12-24T15:24:24;12.56;78.44
72650;SHT31;61467;50.674;4.618;2022-12-24T15:26:51;12.52;78.46
72650;SHT31;61467;50.674;4.618;2022-12-24T15:29:21;12.55;78.49
72650;SHT31;61467;50.674;4.618;2022-12-24T15:31:51;12.50;78.66
72650;SHT31;61467;50.674;4.618;2022-12-24T15:34:27;12.46;78.47
72650;SHT31;61467;50.674;4.618;2022-12-24T15:37:01;12.32;78.99
72650;SHT31;61467;50.674;4.618;2022-12-24T15:39:29;12.25;78.92
72650;SHT31;61467;50.674;4.618;2022-12-24T15:41:56;12.35;78.82
72650;SHT31;61467;50.674;4.618;2022-12-24T15:44:56;12.29;78.63
72650;SHT31;61467;50.674;4.618;2022-12-24T15:47:27;12.24;78.80
72650;SHT31;61467;50.674;4.618;2022-12-24T15:50:08;12.31;78.60
72650;SHT31;61467;50.674;4.618;2022-12-24T15:52:40;12.20;78.51
72650;SHT31;61467;50.674;4.618;2022-12-24T15:55:28;12.05;78.93
72650;SHT31;61467;50.674;4.618;2022-12-24T15:57:56;12.11;78.69
72650;SHT31;61467;50.674;4.618;2022-12-24T16:00:25;12.06;78.92
72650;SHT31;61467;50.674;4.618;2022-12-24T16:03:09;12.14;78.56
72650;SHT31;61467;50.674;4.618;2022-12-24T16:05:37;12.05;78.71
72650;SHT31;61467;50.674;4.618;2022-12-24T16:08:21;11.98;79.15
72650;SHT31;61467;50.674;4.618;2022-12-24T16:10:49;12.12;78.79